sensor_id;sensor_type;location;lat;lon;timestamp;P1;durP1;ratioP1;P2;durP2;ratioP2
21657;SDS011;10990;48.174;9.782;2023-04-09T00:01:33;15.10;;;10.77;;
21657;SDS011;10990;48.174;9.782;2023-04-09T00:04:00;15.60;;;11.17;;
21657;SDS011;10990;48.174;9.782;2023-04-09T00:06:27;15.67;;;10.70;;
21657;SDS011;10990;48.174;9.782;2023-04-09T00:08:55;16.77;;;10.90;;
21657;SDS011;10990;48.174;9.782;2023-04-09T00:11:22;15.23;;;10.77;;
21657;SDS011;10990;48.174;9.782;2023-04-09T00:13:49;14.87;;;9.90;;
21657;SDS011;10990;48.174;9.782;2023-04-09T00:16:15;16.27;;;10.97;;
21657;SDS011;10990;48.174;9.782;2023-04-09T00:18:43;15.97;;;10.90;;
21657;SDS011;10990;48.174;9.782;2023-04-09T00:21:10;16.57;;;10.80;;
21657;SDS011;10990;48.174;9.782;2023-04-09T00:23:37;15.90;;;10.93;;
21657;SDS011;10990;48.174;9.782;2023-04-09T00:26:04;16.10;;;10.57;;
21657;SDS011;10990;48.174;9.782;2023-04-09T00:28:31;15.83;;;9.97;;
21657;SDS011;10990;48.174;9.782;2023-04-09T00:30:58;13.63;;;9.23;;
21657;SDS011;10990;48.174;9.782;2023-04-09T00:33:25;13.60;;;10.13;;
21657;SDS011;10990;48.174;9.782;2023-04-09T00:35:53;12.67;;;8.70;;
21657;SDS011;10990;48.174;9.782;2023-04-09T00:38:20;13.33;;;8.97;;
21657;SDS011;10990;48.174;9.782;2023-04-09T00:40:47;13.07;;;8.77;;
21657;SDS011;10990;48.174;9.782;2023-04-09T00:43:14;12.73;;;9.20;;
21657;SDS011;10990;48.174;9.782;2023-04-09T00:45:42;12.13;;;8.57;;
21657;SDS011;10990;48.174;9.782;2023-04-09T00:48:09;14.07;;;9.30;;
21657;SDS011;10990;48.174;9.782;2023-04-09T00:50:36;13.97;;;9.43;;
21657;SDS011;10990;48.174;9.782;2023-04-09T00:53:04;14.00;;;9.70;;
21657;SDS011;10990;48.174;9.782;2023-04-09T00:55:31;13.63;;;9.57;;
21657;SDS011;10990;48.174;9.782;2023-04-09T00:57:59;14.13;;;9.33;;
21657;SDS011;10990;48.174;9.782;2023-04-09T01:00:26;11.97;;;8.57;;
21657;SDS011;10990;48.174;9.782;2023-04-09T01:02:54;13.77;;;9.57;;
21657;SDS011;10990;48.174;9.782;2023-04-09T01:05:22;12.87;;;9.17;;
21657;SDS011;10990;48.174;9.782;2023-04-09T01:07:53;14.87;;;9.70;;
21657;SDS011;10990;48.174;9.782;2023-04-09T01:10:29;13.73;;;9.10;;
21657;SDS011;10990;48.174;9.782;2023-04-09T01:13:06;12.77;;;9.13;;
21657;SDS011;10990;48.174;9.782;2023-04-09T01:15:38;12.10;;;8.63;;
21657;SDS011;10990;48.174;9.782;2023-04-09T01:18:13;12.67;;;9.03;;
21657;SDS011;10990;48.174;9.782;2023-04-09T01:20:46;12.33;;;8.83;;
21657;SDS011;10990;48.174;9.782;2023-04-09T01:23:24;12.77;;;8.43;;
21657;SDS011;10990;48.174;9.782;2023-04-09T01:26:02;12.67;;;9.23;;
21657;SDS011;10990;48.174;9.782;2023-04-09T01:28:44;13.33;;;8.73;;
21657;SDS011;10990;48.174;9.782;2023-04-09T01:31:13;12.20;;;8.83;;
21657;SDS011;10990;48.174;9.782;2023-04-09T01:33:43;12.60;;;9.13;;
21657;SDS011;10990;48.174;9.782;2023-04-09T01:36:11;12.83;;;9.10;;
21657;SDS011;10990;48.174;9.782;2023-04-09T01:38:40;12.20;;;8.53;;
21657;SDS011;10990;48.174;9.782;2023-04-09T01:41:08;14.53;;;9.10;;
21657;SDS011;10990;48.174;9.782;2023-04-09T01:43:39;11.90;;;8.63;;
21657;SDS011;10990;48.174;9.782;2023-04-09T01:46:09;12.93;;;8.87;;
21657;SDS011;10990;48.174;9.782;2023-04-09T01:48:36;13.00;;;9.07;;
21657;SDS011;10990;48.174;9.782;2023-04-09T01:51:04;11.23;;;8.03;;
21657;SDS011;10990;48.174;9.782;2023-04-09T01:53:31;12.07;;;8.43;;
21657;SDS011;10990;48.174;9.782;2023-04-09T01:55:58;12.77;;;8.80;;
21657;SDS011;10990;48.174;9.782;2023-04-09T01:58:25;11.97;;;8.57;;
21657;SDS011;10990;48.174;9.782;2023-04-09T02:00:53;12.00;;;8.27;;
21657;SDS011;10990;48.174;9.782;2023-04-09T02:03:25;11.40;;;8.00;;
21657;SDS011;10990;48.174;9.782;2023-04-09T02:05:59;10.93;;;7.80;;
21657;SDS011;10990;48.174;9.782;2023-04-09T02:08:33;12.83;;;8.13;;
21657;SDS011;10990;48.174;9.782;2023-04-09T02:11:03;11.30;;;8.00;;
21657;SDS011;10990;48.174;9.782;2023-04-09T02:13:31;11.67;;;7.83;;
21657;SDS011;10990;48.174;9.782;2023-04-09T02:16:00;12.23;;;8.80;;
21657;SDS011;10990;48.174;9.782;2023-04-09T02:18:30;12.40;;;8.10;;
21657;SDS011;10990;48.174;9.782;2023-04-09T02:20:57;12.33;;;8.80;;
21657;SDS011;10990;48.174;9.782;2023-04-09T02:23:25;12.43;;;8.53;;
21657;SDS011;10990;48.174;9.782;2023-04-09T02:25:52;14.63;;;9.77;;
21657;SDS011;10990;48.174;9.782;2023-04-09T02:28:19;13.40;;;9.17;;
21657;SDS011;10990;48.174;9.782;2023-04-09T02:30:46;14.33;;;9.40;;
21657;SDS011;10990;48.174;9.782;2023-04-09T02:33:13;13.40;;;9.00;;
21657;SDS011;10990;48.174;9.782;2023-04-09T02:35:41;12.20;;;9.30;;
21657;SDS011;10990;48.174;9.782;2023-04-09T02:38:08;13.17;;;9.57;;
21657;SDS011;10990;48.174;9.782;2023-04-09T02:40:38;13.43;;;8.77;;
21657;SDS011;10990;48.174;9.782;2023-04-09T02:43:05;14.43;;;10.00;;
21657;SDS011;10990;48.174;9.782;2023-04-09T02:45:32;12.60;;;8.83;;
21657;SDS011;10990;48.174;9.782;2023-04-09T02:47:59;13.60;;;9.60;;
21657;SDS011;10990;48.174;9.782;2023-04-09T02:50:29;13.73;;;8.97;;
21657;SDS011;10990;48.174;9.782;2023-04-09T02:52:57;15.00;;;9.97;;
21657;SDS011;10990;48.174;9.782;2023-04-09T02:55:24;13.30;;;9.33;;
21657;SDS011;10990;48.174;9.782;2023-04-09T02:57:51;14.63;;;9.57;;
21657;SDS011;10990;48.174;9.782;2023-04-09T03:00:18;14.30;;;9.83;;
21657;SDS011;10990;48.174;9.782;2023-04-09T03:02:44;14.73;;;9.60;;
21657;SDS011;10990;48.174;9.782;2023-04-09T03:05:11;16.70;;;11.13;;
21657;SDS011;10990;48.174;9.782;2023-04-09T03:07:38;14.33;;;9.73;;
21657;SDS011;10990;48.174;9.782;2023-04-09T03:10:07;13.70;;;9.37;;
21657;SDS011;10990;48.174;9.782;2023-04-09T03:12:35;15.27;;;10.03;;
21657;SDS011;10990;48.174;9.782;2023-04-09T03:15:02;14.37;;;9.90;;
21657;SDS011;10990;48.174;9.782;2023-04-09T03:17:29;14.47;;;9.80;;
21657;SDS011;10990;48.174;9.782;2023-04-09T03:19:56;14.53;;;9.23;;
21657;SDS011;10990;48.174;9.782;2023-04-09T03:22:34;14.33;;;9.33;;
21657;SDS011;10990;48.174;9.782;2023-04-09T03:25:02;13.63;;;9.03;;
21657;SDS011;10990;48.174;9.782;2023-04-09T03:27:32;13.60;;;9.53;;
21657;SDS011;10990;48.174;9.782;2023-04-09T03:30:00;13.00;;;8.90;;
21657;SDS011;10990;48.174;9.782;2023-04-09T03:32:35;13.27;;;9.07;;
21657;SDS011;10990;48.174;9.782;2023-04-09T03:35:02;14.60;;;9.00;;
21657;SDS011;10990;48.174;9.782;2023-04-09T03:37:30;14.97;;;9.97;;
21657;SDS011;10990;48.174;9.782;2023-04-09T03:39:57;13.33;;;9.13;;
21657;SDS011;10990;48.174;9.782;2023-04-09T03:42:27;14.27;;;9.43;;
21657;SDS011;10990;48.174;9.782;2023-04-09T03:44:55;17.53;;;11.20;;
21657;SDS011;10990;48.174;9.782;2023-04-09T03:47:32;20.50;;;12.67;;
21657;SDS011;10990;48.174;9.782;2023-04-09T03:49:59;20.40;;;12.07;;
21657;SDS011;10990;48.174;9.782;2023-04-09T03:52:33;22.80;;;12.43;;
21657;SDS011;10990;48.174;9.782;2023-04-09T03:55:04;21.63;;;12.40;;
21657;SDS011;10990;48.174;9.782;2023-04-09T03:57:32;23.37;;;13.10;;
21657;SDS011;10990;48.174;9.782;2023-04-09T04:00:00;24.77;;;12.77;;
21657;SDS011;10990;48.174;9.782;2023-04-09T04:02:37;24.60;;;12.67;;
21657;SDS011;10990;48.174;9.782;2023-04-09T04:05:07;22.70;;;13.10;;
21657;SDS011;10990;48.174;9.782;2023-04-09T04:07:41;22.17;;;12.90;;
21657;SDS011;10990;48.174;9.782;2023-04-09T04:10:13;23.60;;;13.00;;
21657;SDS011;10990;48.174;9.782;2023-04-09T04:12:43;28.57;;;14.50;;
21657;SDS011;10990;48.174;9.782;2023-04-09T04:15:16;24.07;;;13.80;;
21657;SDS011;10990;48.174;9.782;2023-04-09T04:17:49;23.07;;;12.53;;
21657;SDS011;10990;48.174;9.782;2023-04-09T04:20:35;21.50;;;13.20;;
21657;SDS011;10990;48.174;9.782;2023-04-09T04:23:07;22.37;;;13.07;;
21657;SDS011;10990;48.174;9.782;2023-04-09T04:25:39;23.50;;;13.90;;
21657;SDS011;10990;48.174;9.782;2023-04-09T04:28:10;24.83;;;14.20;;
21657;SDS011;10990;48.174;9.782;2023-04-09T04:30:41;22.80;;;13.60;;
21657;SDS011;10990;48.174;9.782;2023-04-09T04:33:09;25.80;;;14.90;;
21657;SDS011;10990;48.174;9.782;2023-04-09T04:35:47;25.50;;;14.80;;
21657;SDS011;10990;48.174;9.782;2023-04-09T04:38:31;26.70;;;15.17;;
21657;SDS011;10990;48.174;9.782;2023-04-09T04:41:01;24.63;;;14.40;;
21657;SDS011;10990;48.174;9.782;2023-04-09T04:43:30;22.23;;;13.90;;
21657;SDS011;10990;48.174;9.782;2023-04-09T04:45:59;24.83;;;14.60;;
21657;SDS011;10990;48.174;9.782;2023-04-09T04:48:29;25.97;;;14.60;;
21657;SDS011;10990;48.174;9.782;2023-04-09T04:50:56;23.90;;;14.70;;
21657;SDS011;10990;48.174;9.782;2023-04-09T04:53:28;25.83;;;15.40;;
21657;SDS011;10990;48.174;9.782;2023-04-09T04:55:57;25.07;;;14.03;;
21657;SDS011;10990;48.174;9.782;2023-04-09T04:58:25;25.47;;;15.13;;
21657;SDS011;10990;48.174;9.782;2023-04-09T05:00:56;23.67;;;14.70;;
21657;SDS011;10990;48.174;9.782;2023-04-09T05:03:26;20.77;;;13.27;;
21657;SDS011;10990;48.174;9.782;2023-04-09T05:06:14;22.47;;;14.30;;
21657;SDS011;10990;48.174;9.782;2023-04-09T05:08:43;22.60;;;14.63;;
21657;SDS011;10990;48.174;9.782;2023-04-09T05:11:10;22.43;;;14.10;;
21657;SDS011;10990;48.174;9.782;2023-04-09T05:13:40;24.67;;;14.47;;
21657;SDS011;10990;48.174;9.782;2023-04-09T05:16:14;24.00;;;14.03;;
21657;SDS011;10990;48.174;9.782;2023-04-09T05:18:45;21.27;;;13.83;;
21657;SDS011;10990;48.174;9.782;2023-04-09T05:21:12;21.20;;;13.77;;
21657;SDS011;10990;48.174;9.782;2023-04-09T05:23:42;22.83;;;14.47;;
21657;SDS011;10990;48.174;9.782;2023-04-09T05:26:09;22.27;;;14.47;;
21657;SDS011;10990;48.174;9.782;2023-04-09T05:28:52;23.97;;;14.97;;
21657;SDS011;10990;48.174;9.782;2023-04-09T05:31:21;22.70;;;14.13;;
21657;SDS011;10990;48.174;9.782;2023-04-09T05:34:08;22.50;;;13.83;;
21657;SDS011;10990;48.174;9.782;2023-04-09T05:36:42;21.03;;;12.90;;
21657;SDS011;10990;48.174;9.782;2023-04-09T05:39:09;21.43;;;14.00;;
21657;SDS011;10990;48.174;9.782;2023-04-09T05:41:36;20.53;;;13.47;;
21657;SDS011;10990;48.174;9.782;2023-04-09T05:44:23;19.07;;;13.13;;
21657;SDS011;10990;48.174;9.782;2023-04-09T05:46:55;20.93;;;13.73;;
21657;SDS011;10990;48.174;9.782;2023-04-09T05:49:30;22.53;;;13.93;;
21657;SDS011;10990;48.174;9.782;2023-04-09T05:51:58;24.43;;;15.47;;
21657;SDS011;10990;48.174;9.782;2023-04-09T05:54:29;23.33;;;14.63;;
21657;SDS011;10990;48.174;9.782;2023-04-09T05:56:57;24.43;;;15.63;;
21657;SDS011;10990;48.174;9.782;2023-04-09T05:59:23;22.57;;;14.50;;
21657;SDS011;10990;48.174;9.782;2023-04-09T06:01:52;21.80;;;14.00;;
21657;SDS011;10990;48.174;9.782;2023-04-09T06:04:19;22.07;;;13.40;;
21657;SDS011;10990;48.174;9.782;2023-04-09T06:06:47;21.57;;;15.20;;
21657;SDS011;10990;48.174;9.782;2023-04-09T06:09:14;23.37;;;15.20;;
21657;SDS011;10990;48.174;9.782;2023-04-09T06:11:40;21.47;;;14.27;;
21657;SDS011;10990;48.174;9.782;2023-04-09T06:14:07;23.70;;;15.80;;
21657;SDS011;10990;48.174;9.782;2023-04-09T06:16:36;22.23;;;14.97;;
21657;SDS011;10990;48.174;9.782;2023-04-09T06:19:03;22.40;;;14.60;;
21657;SDS011;10990;48.174;9.782;2023-04-09T06:21:29;24.93;;;15.73;;
21657;SDS011;10990;48.174;9.782;2023-04-09T06:23:58;24.20;;;14.67;;
21657;SDS011;10990;48.174;9.782;2023-04-09T06:26:25;24.67;;;15.23;;
21657;SDS011;10990;48.174;9.782;2023-04-09T06:28:52;26.50;;;16.90;;
21657;SDS011;10990;48.174;9.782;2023-04-09T06:31:19;27.40;;;15.80;;
21657;SDS011;10990;48.174;9.782;2023-04-09T06:33:46;26.17;;;16.27;;
21657;SDS011;10990;48.174;9.782;2023-04-09T06:36:12;25.73;;;16.93;;
21657;SDS011;10990;48.174;9.782;2023-04-09T06:38:39;21.73;;;14.20;;
21657;SDS011;10990;48.174;9.782;2023-04-09T06:41:07;21.13;;;14.03;;
21657;SDS011;10990;48.174;9.782;2023-04-09T06:43:36;23.83;;;15.03;;
21657;SDS011;10990;48.174;9.782;2023-04-09T06:46:03;25.07;;;15.43;;
21657;SDS011;10990;48.174;9.782;2023-04-09T06:48:30;27.13;;;16.63;;
21657;SDS011;10990;48.174;9.782;2023-04-09T06:50:57;25.87;;;17.17;;
21657;SDS011;10990;48.174;9.782;2023-04-09T06:53:24;26.87;;;17.23;;
21657;SDS011;10990;48.174;9.782;2023-04-09T06:55:51;29.37;;;18.17;;
21657;SDS011;10990;48.174;9.782;2023-04-09T06:58:19;28.67;;;17.80;;
21657;SDS011;10990;48.174;9.782;2023-04-09T07:00:46;24.50;;;16.80;;
21657;SDS011;10990;48.174;9.782;2023-04-09T07:03:13;25.73;;;16.40;;
21657;SDS011;10990;48.174;9.782;2023-04-09T07:05:40;24.73;;;15.73;;
21657;SDS011;10990;48.174;9.782;2023-04-09T07:08:06;24.87;;;16.77;;
21657;SDS011;10990;48.174;9.782;2023-04-09T07:10:33;26.63;;;16.97;;
21657;SDS011;10990;48.174;9.782;2023-04-09T07:13:00;28.33;;;16.80;;
21657;SDS011;10990;48.174;9.782;2023-04-09T07:15:28;25.93;;;16.10;;
21657;SDS011;10990;48.174;9.782;2023-04-09T07:17:55;26.07;;;15.97;;
21657;SDS011;10990;48.174;9.782;2023-04-09T07:20:22;28.57;;;17.23;;
21657;SDS011;10990;48.174;9.782;2023-04-09T07:22:49;25.13;;;16.63;;
21657;SDS011;10990;48.174;9.782;2023-04-09T07:25:16;26.57;;;16.93;;
21657;SDS011;10990;48.174;9.782;2023-04-09T07:27:43;26.27;;;16.10;;
21657;SDS011;10990;48.174;9.782;2023-04-09T07:30:10;25.63;;;16.67;;
21657;SDS011;10990;48.174;9.782;2023-04-09T07:32:38;27.20;;;17.20;;
21657;SDS011;10990;48.174;9.782;2023-04-09T07:35:05;28.80;;;19.10;;
21657;SDS011;10990;48.174;9.782;2023-04-09T07:37:33;27.27;;;16.57;;
21657;SDS011;10990;48.174;9.782;2023-04-09T07:40:01;27.93;;;16.40;;
21657;SDS011;10990;48.174;9.782;2023-04-09T07:42:28;25.77;;;16.70;;
21657;SDS011;10990;48.174;9.782;2023-04-09T07:44:55;25.83;;;15.97;;
21657;SDS011;10990;48.174;9.782;2023-04-09T07:47:22;25.87;;;16.30;;
21657;SDS011;10990;48.174;9.782;2023-04-09T07:49:50;25.43;;;16.17;;
21657;SDS011;10990;48.174;9.782;2023-04-09T07:52:17;24.50;;;15.87;;
21657;SDS011;10990;48.174;9.782;2023-04-09T07:54:44;23.70;;;14.83;;
21657;SDS011;10990;48.174;9.782;2023-04-09T07:57:11;22.63;;;14.40;;
21657;SDS011;10990;48.174;9.782;2023-04-09T07:59:38;23.20;;;14.73;;
21657;SDS011;10990;48.174;9.782;2023-04-09T08:02:04;21.47;;;14.33;;
21657;SDS011;10990;48.174;9.782;2023-04-09T08:04:32;23.27;;;15.37;;
21657;SDS011;10990;48.174;9.782;2023-04-09T08:07:00;22.87;;;14.60;;
21657;SDS011;10990;48.174;9.782;2023-04-09T08:09:27;24.97;;;14.00;;
21657;SDS011;10990;48.174;9.782;2023-04-09T08:11:53;22.83;;;14.80;;
21657;SDS011;10990;48.174;9.782;2023-04-09T08:14:21;26.93;;;16.37;;
21657;SDS011;10990;48.174;9.782;2023-04-09T08:16:48;28.17;;;17.70;;
21657;SDS011;10990;48.174;9.782;2023-04-09T08:19:15;26.57;;;15.87;;
21657;SDS011;10990;48.174;9.782;2023-04-09T08:21:43;27.87;;;16.57;;
21657;SDS011;10990;48.174;9.782;2023-04-09T08:24:14;26.87;;;15.30;;
21657;SDS011;10990;48.174;9.782;2023-04-09T08:26:41;23.93;;;15.30;;
21657;SDS011;10990;48.174;9.782;2023-04-09T08:29:09;27.40;;;15.53;;
21657;SDS011;10990;48.174;9.782;2023-04-09T08:31:37;24.77;;;15.47;;
21657;SDS011;10990;48.174;9.782;2023-04-09T08:34:04;23.77;;;15.40;;
21657;SDS011;10990;48.174;9.782;2023-04-09T08:36:32;26.30;;;16.23;;
21657;SDS011;10990;48.174;9.782;2023-04-09T08:38:59;24.33;;;14.97;;
21657;SDS011;10990;48.174;9.782;2023-04-09T08:41:27;23.47;;;15.30;;
21657;SDS011;10990;48.174;9.782;2023-04-09T08:43:54;24.30;;;16.10;;
21657;SDS011;10990;48.174;9.782;2023-04-09T08:46:22;24.13;;;15.00;;
21657;SDS011;10990;48.174;9.782;2023-04-09T08:48:50;22.20;;;14.60;;
21657;SDS011;10990;48.174;9.782;2023-04-09T08:51:18;23.20;;;14.50;;
21657;SDS011;10990;48.174;9.782;2023-04-09T08:53:45;27.77;;;15.77;;
21657;SDS011;10990;48.174;9.782;2023-04-09T08:56:14;24.30;;;15.33;;
21657;SDS011;10990;48.174;9.782;2023-04-09T08:58:43;24.13;;;15.10;;
21657;SDS011;10990;48.174;9.782;2023-04-09T09:01:17;22.73;;;14.50;;
21657;SDS011;10990;48.174;9.782;2023-04-09T09:03:56;23.57;;;14.83;;
21657;SDS011;10990;48.174;9.782;2023-04-09T09:06:24;24.27;;;15.07;;
21657;SDS011;10990;48.174;9.782;2023-04-09T09:09:00;22.57;;;14.30;;
21657;SDS011;10990;48.174;9.782;2023-04-09T09:11:28;22.63;;;14.33;;
21657;SDS011;10990;48.174;9.782;2023-04-09T09:14:03;23.07;;;14.37;;
21657;SDS011;10990;48.174;9.782;2023-04-09T09:16:31;21.63;;;13.90;;
21657;SDS011;10990;48.174;9.782;2023-04-09T09:18:59;21.73;;;13.63;;
21657;SDS011;10990;48.174;9.782;2023-04-09T09:21:27;21.20;;;14.10;;
21657;SDS011;10990;48.174;9.782;2023-04-09T09:23:55;21.90;;;13.97;;
21657;SDS011;10990;48.174;9.782;2023-04-09T09:26:23;21.50;;;13.43;;
21657;SDS011;10990;48.174;9.782;2023-04-09T09:28:51;18.10;;;11.67;;
21657;SDS011;10990;48.174;9.782;2023-04-09T09:31:21;18.63;;;12.48;;
21657;SDS011;10990;48.174;9.782;2023-04-09T09:33:48;18.52;;;12.45;;
21657;SDS011;10990;48.174;9.782;2023-04-09T09:36:29;21.45;;;13.25;;
21657;SDS011;10990;48.174;9.782;2023-04-09T09:38:57;18.52;;;12.82;;
21657;SDS011;10990;48.174;9.782;2023-04-09T09:41:28;18.23;;;12.07;;
21657;SDS011;10990;48.174;9.782;2023-04-09T09:43:55;16.50;;;11.35;;
21657;SDS011;10990;48.174;9.782;2023-04-09T09:46:23;19.38;;;12.57;;
21657;SDS011;10990;48.174;9.782;2023-04-09T09:48:50;17.08;;;11.70;;
21657;SDS011;10990;48.174;9.782;2023-04-09T09:51:17;16.50;;;11.15;;
21657;SDS011;10990;48.174;9.782;2023-04-09T09:53:47;15.18;;;11.02;;
21657;SDS011;10990;48.174;9.782;2023-04-09T09:56:20;14.60;;;10.77;;
21657;SDS011;10990;48.174;9.782;2023-04-09T09:58:52;14.52;;;10.30;;
21657;SDS011;10990;48.174;9.782;2023-04-09T10:01:25;14.63;;;9.95;;
21657;SDS011;10990;48.174;9.782;2023-04-09T10:03:53;14.30;;;10.38;;
21657;SDS011;10990;48.174;9.782;2023-04-09T10:06:23;14.32;;;9.48;;
21657;SDS011;10990;48.174;9.782;2023-04-09T10:08:51;15.70;;;10.25;;
21657;SDS011;10990;48.174;9.782;2023-04-09T10:11:22;15.43;;;9.95;;
21657;SDS011;10990;48.174;9.782;2023-04-09T10:13:50;14.00;;;9.75;;
21657;SDS011;10990;48.174;9.782;2023-04-09T10:16:21;14.80;;;9.90;;
21657;SDS011;10990;48.174;9.782;2023-04-09T10:18:50;16.35;;;10.30;;
21657;SDS011;10990;48.174;9.782;2023-04-09T10:21:19;13.88;;;9.75;;
21657;SDS011;10990;48.174;9.782;2023-04-09T10:23:55;14.50;;;9.75;;
21657;SDS011;10990;48.174;9.782;2023-04-09T10:26:24;15.38;;;10.32;;
21657;SDS011;10990;48.174;9.782;2023-04-09T10:29:05;13.43;;;9.07;;
21657;SDS011;10990;48.174;9.782;2023-04-09T10:31:47;12.68;;;9.07;;
21657;SDS011;10990;48.174;9.782;2023-04-09T10:34:19;14.77;;;9.90;;
21657;SDS011;10990;48.174;9.782;2023-04-09T10:36:49;13.65;;;9.23;;
21657;SDS011;10990;48.174;9.782;2023-04-09T10:39:18;11.97;;;8.60;;
21657;SDS011;10990;48.174;9.782;2023-04-09T10:41:45;13.33;;;8.57;;
21657;SDS011;10990;48.174;9.782;2023-04-09T10:44:20;12.07;;;8.00;;
21657;SDS011;10990;48.174;9.782;2023-04-09T10:46:47;11.40;;;7.93;;
21657;SDS011;10990;48.174;9.782;2023-04-09T10:49:15;10.00;;;7.45;;
21657;SDS011;10990;48.174;9.782;2023-04-09T10:51:54;11.68;;;7.80;;
21657;SDS011;10990;48.174;9.782;2023-04-09T10:54:40;15.32;;;9.68;;
21657;SDS011;10990;48.174;9.782;2023-04-09T10:57:17;13.23;;;8.85;;
21657;SDS011;10990;48.174;9.782;2023-04-09T10:59:45;14.55;;;9.07;;
21657;SDS011;10990;48.174;9.782;2023-04-09T11:05:25;11.75;;;8.00;;
21657;SDS011;10990;48.174;9.782;2023-04-09T11:08:02;9.88;;;6.80;;
21657;SDS011;10990;48.174;9.782;2023-04-09T11:10:30;8.43;;;5.80;;
21657;SDS011;10990;48.174;9.782;2023-04-09T11:12:58;8.75;;;6.32;;
21657;SDS011;10990;48.174;9.782;2023-04-09T11:15:25;7.00;;;5.13;;
21657;SDS011;10990;48.174;9.782;2023-04-09T11:17:52;6.63;;;4.78;;
21657;SDS011;10990;48.174;9.782;2023-04-09T11:20:19;7.70;;;5.18;;
21657;SDS011;10990;48.174;9.782;2023-04-09T11:22:47;6.03;;;4.45;;
21657;SDS011;10990;48.174;9.782;2023-04-09T11:25:19;5.57;;;4.22;;
21657;SDS011;10990;48.174;9.782;2023-04-09T11:27:47;7.15;;;5.03;;
21657;SDS011;10990;48.174;9.782;2023-04-09T11:30:14;9.35;;;6.50;;
21657;SDS011;10990;48.174;9.782;2023-04-09T11:32:41;8.70;;;6.25;;
21657;SDS011;10990;48.174;9.782;2023-04-09T11:35:11;9.98;;;6.32;;
21657;SDS011;10990;48.174;9.782;2023-04-09T11:37:38;8.75;;;6.38;;
21657;SDS011;10990;48.174;9.782;2023-04-09T11:40:07;10.25;;;6.40;;
21657;SDS011;10990;48.174;9.782;2023-04-09T11:42:41;9.18;;;6.05;;
21657;SDS011;10990;48.174;9.782;2023-04-09T11:45:08;7.50;;;5.60;;
21657;SDS011;10990;48.174;9.782;2023-04-09T11:47:35;7.72;;;5.53;;
21657;SDS011;10990;48.174;9.782;2023-04-09T11:50:04;6.55;;;4.95;;
21657;SDS011;10990;48.174;9.782;2023-04-09T11:52:32;7.28;;;5.13;;
21657;SDS011;10990;48.174;9.782;2023-04-09T11:55:00;6.80;;;4.80;;
21657;SDS011;10990;48.174;9.782;2023-04-09T11:57:35;5.63;;;4.35;;
21657;SDS011;10990;48.174;9.782;2023-04-09T12:00:06;7.47;;;4.82;;
21657;SDS011;10990;48.174;9.782;2023-04-09T12:02:35;7.15;;;4.95;;
21657;SDS011;10990;48.174;9.782;2023-04-09T12:05:03;6.57;;;4.63;;
21657;SDS011;10990;48.174;9.782;2023-04-09T12:07:31;5.97;;;4.43;;
21657;SDS011;10990;48.174;9.782;2023-04-09T12:10:01;5.70;;;4.20;;
21657;SDS011;10990;48.174;9.782;2023-04-09T12:12:30;5.30;;;4.22;;
21657;SDS011;10990;48.174;9.782;2023-04-09T12:14:57;6.30;;;4.32;;
21657;SDS011;10990;48.174;9.782;2023-04-09T12:17:25;5.45;;;4.30;;
21657;SDS011;10990;48.174;9.782;2023-04-09T12:19:51;5.80;;;4.40;;
21657;SDS011;10990;48.174;9.782;2023-04-09T12:22:18;7.00;;;4.80;;
21657;SDS011;10990;48.174;9.782;2023-04-09T12:24:45;5.35;;;4.20;;
21657;SDS011;10990;48.174;9.782;2023-04-09T12:27:12;5.32;;;4.20;;
21657;SDS011;10990;48.174;9.782;2023-04-09T12:29:38;6.30;;;4.65;;
21657;SDS011;10990;48.174;9.782;2023-04-09T12:32:05;6.15;;;4.35;;
21657;SDS011;10990;48.174;9.782;2023-04-09T12:34:34;4.97;;;3.95;;
21657;SDS011;10990;48.174;9.782;2023-04-09T12:37:01;5.80;;;4.30;;
21657;SDS011;10990;48.174;9.782;2023-04-09T12:39:27;4.47;;;3.38;;
21657;SDS011;10990;48.174;9.782;2023-04-09T12:41:54;5.35;;;4.18;;
21657;SDS011;10990;48.174;9.782;2023-04-09T12:44:21;5.45;;;3.88;;
21657;SDS011;10990;48.174;9.782;2023-04-09T12:46:48;5.80;;;3.60;;
21657;SDS011;10990;48.174;9.782;2023-04-09T12:49:15;4.72;;;3.75;;
21657;SDS011;10990;48.174;9.782;2023-04-09T12:51:43;4.90;;;3.85;;
21657;SDS011;10990;48.174;9.782;2023-04-09T12:54:10;5.60;;;4.00;;
21657;SDS011;10990;48.174;9.782;2023-04-09T12:56:37;6.10;;;4.18;;
21657;SDS011;10990;48.174;9.782;2023-04-09T12:59:04;6.55;;;4.65;;
21657;SDS011;10990;48.174;9.782;2023-04-09T13:01:31;5.43;;;4.30;;
21657;SDS011;10990;48.174;9.782;2023-04-09T13:03:58;6.38;;;4.40;;
21657;SDS011;10990;48.174;9.782;2023-04-09T13:06:24;5.88;;;4.30;;
21657;SDS011;10990;48.174;9.782;2023-04-09T13:08:52;5.72;;;4.18;;
21657;SDS011;10990;48.174;9.782;2023-04-09T13:11:19;6.35;;;4.28;;
21657;SDS011;10990;48.174;9.782;2023-04-09T13:13:46;4.93;;;3.88;;
21657;SDS011;10990;48.174;9.782;2023-04-09T13:16:13;6.45;;;4.40;;
21657;SDS011;10990;48.174;9.782;2023-04-09T13:18:40;5.28;;;3.80;;
21657;SDS011;10990;48.174;9.782;2023-04-09T13:21:07;6.00;;;4.28;;
21657;SDS011;10990;48.174;9.782;2023-04-09T13:23:33;5.95;;;4.40;;
21657;SDS011;10990;48.174;9.782;2023-04-09T13:26:02;5.75;;;4.18;;
21657;SDS011;10990;48.174;9.782;2023-04-09T13:28:28;5.95;;;3.83;;
21657;SDS011;10990;48.174;9.782;2023-04-09T13:30:55;6.25;;;3.92;;
21657;SDS011;10990;48.174;9.782;2023-04-09T13:33:22;5.70;;;4.10;;
21657;SDS011;10990;48.174;9.782;2023-04-09T13:35:49;6.28;;;4.50;;
21657;SDS011;10990;48.174;9.782;2023-04-09T13:38:16;7.15;;;4.82;;
21657;SDS011;10990;48.174;9.782;2023-04-09T13:40:43;6.82;;;4.97;;
21657;SDS011;10990;48.174;9.782;2023-04-09T13:43:11;6.05;;;4.57;;
21657;SDS011;10990;48.174;9.782;2023-04-09T13:45:38;7.55;;;5.07;;
21657;SDS011;10990;48.174;9.782;2023-04-09T13:48:05;6.90;;;4.78;;
21657;SDS011;10990;48.174;9.782;2023-04-09T13:50:32;7.35;;;4.70;;
21657;SDS011;10990;48.174;9.782;2023-04-09T13:52:59;5.82;;;4.47;;
21657;SDS011;10990;48.174;9.782;2023-04-09T13:55:29;6.90;;;4.40;;
21657;SDS011;10990;48.174;9.782;2023-04-09T13:57:56;5.13;;;4.07;;
21657;SDS011;10990;48.174;9.782;2023-04-09T14:00:24;6.10;;;4.35;;
21657;SDS011;10990;48.174;9.782;2023-04-09T14:02:51;6.25;;;4.50;;
21657;SDS011;10990;48.174;9.782;2023-04-09T14:05:18;6.45;;;4.43;;
21657;SDS011;10990;48.174;9.782;2023-04-09T14:07:45;8.50;;;5.95;;
21657;SDS011;10990;48.174;9.782;2023-04-09T14:10:11;9.85;;;6.78;;
21657;SDS011;10990;48.174;9.782;2023-04-09T14:12:38;8.77;;;6.45;;
21657;SDS011;10990;48.174;9.782;2023-04-09T14:15:05;10.20;;;7.15;;
21657;SDS011;10990;48.174;9.782;2023-04-09T14:17:35;10.30;;;7.03;;
21657;SDS011;10990;48.174;9.782;2023-04-09T14:20:02;9.65;;;7.07;;
21657;SDS011;10990;48.174;9.782;2023-04-09T14:22:29;8.73;;;6.40;;
21657;SDS011;10990;48.174;9.782;2023-04-09T14:24:56;9.35;;;6.40;;
21657;SDS011;10990;48.174;9.782;2023-04-09T14:27:23;9.70;;;6.68;;
21657;SDS011;10990;48.174;9.782;2023-04-09T14:29:50;10.13;;;6.50;;
21657;SDS011;10990;48.174;9.782;2023-04-09T14:32:17;9.27;;;6.50;;
21657;SDS011;10990;48.174;9.782;2023-04-09T14:34:46;10.57;;;6.85;;
21657;SDS011;10990;48.174;9.782;2023-04-09T14:37:13;8.85;;;6.20;;
21657;SDS011;10990;48.174;9.782;2023-04-09T14:39:40;8.73;;;6.20;;
21657;SDS011;10990;48.174;9.782;2023-04-09T14:42:07;9.32;;;6.18;;
21657;SDS011;10990;48.174;9.782;2023-04-09T14:44:34;10.23;;;7.00;;